createdAt,value
2018-02-19T00:00:06.577Z,1019.50
2018-02-19T00:01:06.572Z,1019.46
2018-02-19T00:02:06.307Z,1019.52
2018-02-19T00:03:06.337Z,1019.51
2018-02-19T00:04:06.352Z,1019.47
2018-02-19T00:05:06.430Z,1019.44
2018-02-19T00:06:06.414Z,1019.47
2018-02-19T00:07:06.758Z,1019.46
2018-02-19T00:08:06.499Z,1019.52
2018-02-19T00:09:06.517Z,1019.49
2018-02-19T00:10:06.550Z,1019.46
2018-02-19T00:11:06.578Z,1019.42
2018-02-19T00:12:06.621Z,1019.41
2018-02-19T00:13:06.869Z,1019.35
2018-02-19T00:14:06.655Z,1019.34
2018-02-19T00:15:06.705Z,1019.33
2018-02-19T00:16:06.738Z,1019.28
2018-02-19T00:17:06.808Z,1019.30
2018-02-19T00:18:06.774Z,1019.27
2018-02-19T00:19:07.145Z,1019.28
2018-02-19T00:20:06.837Z,1019.29
2018-02-19T00:21:06.868Z,1019.30
2018-02-19T00:22:06.895Z,1019.34
2018-02-19T00:23:06.943Z,1019.27
2018-02-19T00:24:06.963Z,1019.32
2018-02-19T00:25:07.252Z,1019.31
2018-02-19T00:26:07.032Z,1019.30
2018-02-19T00:27:07.067Z,1019.28
2018-02-19T00:28:07.142Z,1019.27
2018-02-19T00:29:07.162Z,1019.24
2018-02-19T00:30:07.154Z,1019.28
2018-02-19T00:31:07.467Z,1019.23
2018-02-19T00:32:07.196Z,1019.23
2018-02-19T00:33:07.250Z,1019.24
2018-02-19T00:34:07.314Z,1019.20
2018-02-19T00:35:07.601Z,1019.19
2018-02-19T00:36:07.334Z,1019.14
2018-02-19T00:37:07.606Z,1019.18
2018-02-19T00:38:07.379Z,1019.17
2018-02-19T00:39:07.426Z,1019.16
2018-02-19T00:40:07.456Z,1019.17
2018-02-19T00:41:07.490Z,1019.15
2018-02-19T00:42:07.500Z,1019.12
2018-02-19T00:43:07.845Z,1019.10
2018-02-19T00:44:07.584Z,1019.10
2018-02-19T00:45:07.589Z,1019.13
2018-02-19T00:46:07.665Z,1019.13
2018-02-19T00:47:07.751Z,1019.13
2018-02-19T00:48:07.695Z,1019.15
2018-02-19T00:49:07.960Z,1019.08
2018-02-19T00:50:07.740Z,1019.08
2018-02-19T00:51:07.769Z,1019.07
2018-02-19T00:52:07.849Z,1019.07
2018-02-19T00:53:07.851Z,1019.02
2018-02-19T00:54:07.882Z,1019.02
2018-02-19T00:55:08.194Z,1019.00
2018-02-19T00:56:07.919Z,1018.99
2018-02-19T00:57:07.949Z,1018.96
2018-02-19T00:58:07.982Z,1018.95
2018-02-19T00:59:08.276Z,1018.97
2018-02-19T01:00:08.056Z,1018.96
2018-02-19T01:01:08.082Z,1018.94
2018-02-19T01:02:08.402Z,1018.94
2018-02-19T01:03:08.152Z,1018.92
2018-02-19T01:04:08.177Z,1018.92
2018-02-19T01:05:08.468Z,1018.89
2018-02-19T01:06:08.223Z,1018.89
2018-02-19T01:07:08.252Z,1018.91
2018-02-19T01:08:08.322Z,1018.90
2018-02-19T01:09:08.561Z,1018.85
2018-02-19T01:10:08.348Z,1018.80
2018-02-19T01:11:08.374Z,1018.84
2018-02-19T01:12:08.423Z,1018.82
2018-02-19T01:13:08.471Z,1018.82
2018-02-19T01:14:08.535Z,1018.85
2018-02-19T01:15:08.508Z,1018.82
2018-02-19T01:16:08.824Z,1018.82
2018-02-19T01:17:08.719Z,1018.81
2018-02-19T01:18:08.593Z,1018.81
2018-02-19T01:19:08.628Z,1018.84
2018-02-19T01:20:08.648Z,1018.81
2018-02-19T01:21:08.691Z,1018.86
2018-02-19T01:22:08.716Z,1018.84
2018-02-19T01:23:09.177Z,1018.84
2018-02-19T01:24:08.781Z,1018.83
2018-02-19T01:25:08.800Z,1018.80
2018-02-19T01:26:08.824Z,1018.82
2018-02-19T01:27:08.857Z,1018.81
2018-02-19T01:28:08.917Z,1018.80
2018-02-19T01:29:08.979Z,1018.75
2018-02-19T01:30:09.226Z,1018.79
2018-02-19T01:31:08.984Z,1018.76
2018-02-19T01:32:09.011Z,1018.74
2018-02-19T01:33:09.033Z,1018.75
2018-02-19T01:34:09.065Z,1018.72
2018-02-19T01:35:09.113Z,1018.67
2018-02-19T01:36:09.144Z,1018.65
2018-02-19T01:37:09.424Z,1018.64
2018-02-19T01:38:09.185Z,1018.64
2018-02-19T01:39:09.232Z,1018.63
2018-02-19T01:40:09.374Z,1018.63
2018-02-19T01:41:09.297Z,1018.58
2018-02-19T01:42:09.328Z,1018.61
2018-02-19T01:43:09.335Z,1018.61
2018-02-19T01:44:09.640Z,1018.60
2018-02-19T01:45:09.399Z,1018.54
2018-02-19T01:46:09.448Z,1018.55
2018-02-19T01:47:09.472Z,1018.50
2018-02-19T01:48:09.492Z,1018.50
2018-02-19T01:49:09.583Z,1018.50
2018-02-19T01:50:09.597Z,1018.51
2018-02-19T01:51:09.832Z,1018.50
2018-02-19T01:52:09.624Z,1018.48
2018-02-19T01:53:09.641Z,1018.44
2018-02-19T01:54:09.671Z,1018.43
2018-02-19T01:55:09.708Z,1018.43
2018-02-19T01:56:09.726Z,1018.41
2018-02-19T01:57:09.757Z,1018.39
2018-02-19T01:58:10.113Z,1018.32
2018-02-19T01:59:09.840Z,1018.31
2018-02-19T02:00:09.846Z,1018.32
2018-02-19T02:01:09.898Z,1018.33
2018-02-19T02:02:09.932Z,1018.34
2018-02-19T02:03:09.963Z,1018.33
2018-02-19T02:04:09.967Z,1018.33
2018-02-19T02:05:10.319Z,1018.31
2018-02-19T02:06:10.032Z,1018.29
2018-02-19T02:07:10.206Z,1018.26
2018-02-19T02:08:10.091Z,1018.28
2018-02-19T02:09:10.218Z,1018.29
2018-02-19T02:10:10.183Z,1018.23
2018-02-19T02:11:10.197Z,1018.21
2018-02-19T02:12:10.461Z,1018.20
2018-02-19T02:13:10.246Z,1018.24
2018-02-19T02:14:10.277Z,1018.21
2018-02-19T02:15:10.374Z,1018.20
2018-02-19T02:16:10.330Z,1018.17
2018-02-19T02:17:10.361Z,1018.16
2018-02-19T02:18:10.691Z,1018.13
2018-02-19T02:19:10.456Z,1018.17
2018-02-19T02:20:10.485Z,1018.13
2018-02-19T02:21:10.827Z,1018.14
2018-02-19T02:22:10.540Z,1018.17
2018-02-19T02:23:10.558Z,1018.16
2018-02-19T02:24:10.894Z,1018.16
2018-02-19T02:25:10.608Z,1018.16
2018-02-19T02:26:10.676Z,1018.16
2018-02-19T02:27:10.787Z,1018.15
2018-02-19T02:28:10.726Z,1018.12
2018-02-19T02:29:10.785Z,1018.13
2018-02-19T02:30:11.185Z,1018.08
2018-02-19T02:31:10.834Z,1018.10
2018-02-19T02:32:10.832Z,1018.06
2018-02-19T02:33:11.110Z,1018.05
2018-02-19T02:34:10.886Z,1018.05
2018-02-19T02:35:10.916Z,1018.07
2018-02-19T02:36:11.183Z,1018.02
2018-02-19T02:37:10.986Z,1018.02
2018-02-19T02:38:11.020Z,1018.00
2018-02-19T02:39:11.027Z,1018.00
2018-02-19T02:40:11.065Z,1017.98
2018-02-19T02:41:11.087Z,1018.01
2018-02-19T02:42:11.370Z,1017.98
2018-02-19T02:43:11.164Z,1018.00
2018-02-19T02:44:11.247Z,1017.98
2018-02-19T02:45:11.224Z,1017.99
2018-02-19T02:46:11.256Z,1017.95
2018-02-19T02:47:11.286Z,1017.96
2018-02-19T02:48:11.564Z,1017.98
2018-02-19T02:49:11.370Z,1017.97
2018-02-19T02:50:11.380Z,1017.97
2018-02-19T02:51:11.402Z,1017.98
2018-02-19T02:52:11.419Z,1017.93
2018-02-19T02:53:11.463Z,1017.91
2018-02-19T02:54:11.828Z,1017.89
2018-02-19T02:55:11.509Z,1017.90
2018-02-19T02:56:11.556Z,1017.93
2018-02-19T02:57:11.566Z,1017.94
2018-02-19T02:58:11.599Z,1017.93
2018-02-19T02:59:11.627Z,1017.91
2018-02-19T03:00:11.957Z,1017.91
2018-02-19T03:01:11.690Z,1017.89
2018-02-19T03:02:11.781Z,1017.88
2018-02-19T03:03:11.764Z,1017.88
2018-02-19T03:04:11.783Z,1017.80
2018-02-19T03:05:11.823Z,1017.79
2018-02-19T03:06:12.208Z,1017.84
2018-02-19T03:07:11.867Z,1017.80
2018-02-19T03:08:11.914Z,1017.79
2018-02-19T03:09:12.039Z,1017.85
2018-02-19T03:10:11.961Z,1017.85
2018-02-19T03:11:12.012Z,1017.87
2018-02-19T03:12:12.362Z,1017.87
2018-02-19T03:13:12.048Z,1017.92
2018-02-19T03:14:12.112Z,1017.90
2018-02-19T03:15:12.201Z,1017.89
2018-02-19T03:16:12.216Z,1017.86
2018-02-19T03:17:12.186Z,1017.81
2018-02-19T03:18:12.495Z,1017.82
2018-02-19T03:19:12.232Z,1017.86
2018-02-19T03:20:12.290Z,1017.85
2018-02-19T03:21:12.361Z,1017.84
2018-02-19T03:22:12.338Z,1017.83
2018-02-19T03:23:12.365Z,1017.84
2018-02-19T03:24:12.817Z,1017.84
2018-02-19T03:25:12.428Z,1017.85
2018-02-19T03:26:12.439Z,1017.88
2018-02-19T03:27:12.490Z,1017.88
2018-02-19T03:28:12.501Z,1017.87
2018-02-19T03:29:12.570Z,1017.87
2018-02-19T03:30:12.593Z,1017.87
2018-02-19T03:31:12.912Z,1017.86
2018-02-19T03:32:12.670Z,1017.86
2018-02-19T03:33:12.770Z,1017.83
2018-02-19T03:34:12.788Z,1017.86
2018-02-19T03:35:12.739Z,1017.87
2018-02-19T03:36:12.820Z,1017.91
2018-02-19T03:37:12.879Z,1017.86
2018-02-19T03:38:13.128Z,1017.85
2018-02-19T03:39:12.905Z,1017.84
2018-02-19T03:40:12.909Z,1017.81
2018-02-19T03:41:12.908Z,1017.85
2018-02-19T03:42:12.937Z,1017.84
2018-02-19T03:43:12.950Z,1017.86
2018-02-19T03:44:13.001Z,1017.86
2018-02-19T03:45:13.342Z,1017.83
2018-02-19T03:46:13.072Z,1017.89
2018-02-19T03:47:13.091Z,1017.89
2018-02-19T03:48:13.119Z,1017.85
2018-02-19T03:49:13.132Z,1017.86
2018-02-19T03:50:13.174Z,1017.83
2018-02-19T03:51:13.341Z,1017.84
2018-02-19T03:52:13.488Z,1017.86
2018-02-19T03:53:13.271Z,1017.87
2018-02-19T03:54:13.303Z,1017.86
2018-02-19T03:55:13.355Z,1017.89
2018-02-19T03:56:13.438Z,1017.90
2018-02-19T03:57:13.602Z,1017.95
2018-02-19T03:58:13.453Z,1017.95
2018-02-19T03:59:13.686Z,1017.96
2018-02-19T04:00:13.463Z,1017.98
2018-02-19T04:01:13.572Z,1017.93
2018-02-19T04:02:13.522Z,1017.93
2018-02-19T04:03:13.554Z,1017.89
2018-02-19T04:04:13.586Z,1017.90
2018-02-19T04:05:13.625Z,1017.85
2018-02-19T04:06:13.917Z,1017.89
2018-02-19T04:07:13.676Z,1017.88
2018-02-19T04:08:13.725Z,1017.86
2018-02-19T04:09:14.034Z,1017.83
2018-02-19T04:10:13.783Z,1017.82
2018-02-19T04:11:13.819Z,1017.79
2018-02-19T04:12:13.824Z,1017.82
2018-02-19T04:13:14.109Z,1017.78
2018-02-19T04:14:13.903Z,1017.77
2018-02-19T04:15:13.981Z,1017.73
2018-02-19T04:16:13.944Z,1017.74
2018-02-19T04:17:13.978Z,1017.69
2018-02-19T04:18:14.020Z,1017.67
2018-02-19T04:19:14.042Z,1017.65
2018-02-19T04:20:14.334Z,1017.61
2018-02-19T04:21:14.200Z,1017.57
2018-02-19T04:22:14.124Z,1017.56
2018-02-19T04:23:14.172Z,1017.54
2018-02-19T04:24:14.204Z,1017.56
2018-02-19T04:25:14.215Z,1017.54
2018-02-19T04:26:14.247Z,1017.54
2018-02-19T04:27:14.601Z,1017.54
2018-02-19T04:28:14.332Z,1017.57
2018-02-19T04:29:14.414Z,1017.54
2018-02-19T04:30:14.375Z,1017.50
2018-02-19T04:31:14.412Z,1017.49
2018-02-19T04:32:14.458Z,1017.49
2018-02-19T04:33:14.475Z,1017.43
2018-02-19T04:34:14.810Z,1017.39
2018-02-19T04:35:14.528Z,1017.40
2018-02-19T04:36:14.551Z,1017.30
2018-02-19T04:37:14.580Z,1017.36
2018-02-19T04:38:14.627Z,1017.34
2018-02-19T04:39:14.636Z,1017.30
2018-02-19T04:40:14.685Z,1017.27
2018-02-19T04:41:14.949Z,1017.23
2018-02-19T04:42:14.783Z,1017.18
2018-02-19T04:43:14.773Z,1017.10
2018-02-19T04:44:14.787Z,1017.12
2018-02-19T04:45:14.837Z,1017.13
2018-02-19T04:46:14.854Z,1017.10
2018-02-19T04:47:15.181Z,1017.12
2018-02-19T04:48:14.917Z,1017.08
2018-02-19T04:49:14.954Z,1017.10
2018-02-19T04:50:14.987Z,1017.06
2018-02-19T04:51:15.000Z,1017.07
2018-02-19T04:52:15.030Z,1017.07
2018-02-19T04:53:15.428Z,1017.07
2018-02-19T04:54:15.094Z,1017.10
2018-02-19T04:55:15.145Z,1017.05
2018-02-19T04:56:15.148Z,1017.07
2018-02-19T04:57:15.184Z,1017.10
2018-02-19T04:58:15.213Z,1017.06
2018-02-19T04:59:15.559Z,1017.08
2018-02-19T05:00:15.297Z,1017.01
2018-02-19T05:01:15.300Z,1017.02
2018-02-19T05:02:15.332Z,1017.03
2018-02-19T05:03:15.370Z,1017.01
2018-02-19T05:04:15.456Z,1017.02
2018-02-19T05:05:15.688Z,1017.01
2018-02-19T05:06:15.450Z,1017.00
2018-02-19T05:07:15.495Z,1017.01
2018-02-19T05:08:15.648Z,1016.98
2018-02-19T05:09:15.540Z,1016.92
2018-02-19T05:10:15.601Z,1016.91
2018-02-19T05:11:15.869Z,1016.87
2018-02-19T05:12:15.669Z,1016.87
2018-02-19T05:13:15.687Z,1016.86
2018-02-19T05:14:15.825Z,1016.81
2018-02-19T05:15:15.737Z,1016.84
2018-02-19T05:16:15.750Z,1016.85
2018-02-19T05:17:16.103Z,1016.84
2018-02-19T05:18:15.829Z,1016.84
2018-02-19T05:19:15.868Z,1016.85
2018-02-19T05:20:15.887Z,1016.83
2018-02-19T05:21:15.900Z,1016.86
2018-02-19T05:22:15.956Z,1016.86
2018-02-19T05:23:16.274Z,1016.81
2018-02-19T05:24:16.008Z,1016.85
2018-02-19T05:25:16.096Z,1016.89
2018-02-19T05:26:16.055Z,1016.87
2018-02-19T05:27:16.104Z,1016.89
2018-02-19T05:28:16.130Z,1016.92
2018-02-19T05:29:16.442Z,1016.92
2018-02-19T05:30:16.203Z,1016.90
2018-02-19T05:31:16.290Z,1016.89
2018-02-19T05:32:16.274Z,1016.95
2018-02-19T05:33:16.604Z,1016.94
2018-02-19T05:34:16.313Z,1016.91
2018-02-19T05:35:16.633Z,1016.94
2018-02-19T05:36:16.371Z,1016.94
2018-02-19T05:37:16.385Z,1016.90
2018-02-19T05:38:16.432Z,1016.92
2018-02-19T05:39:16.451Z,1016.87
2018-02-19T05:40:16.477Z,1016.89
2018-02-19T05:41:16.811Z,1016.87
2018-02-19T05:42:16.585Z,1016.88
2018-02-19T05:43:16.599Z,1016.90
2018-02-19T05:44:16.615Z,1016.95
2018-02-19T05:45:16.692Z,1016.94
2018-02-19T05:46:16.669Z,1016.96
2018-02-19T05:47:17.008Z,1016.95
2018-02-19T05:48:16.734Z,1016.93
2018-02-19T05:49:16.763Z,1016.95
2018-02-19T05:50:16.774Z,1016.95
2018-02-19T05:51:16.815Z,1016.95
2018-02-19T05:52:16.853Z,1016.92
2018-02-19T05:53:17.164Z,1016.92
2018-02-19T05:54:16.899Z,1016.93
2018-02-19T05:55:16.943Z,1016.97
2018-02-19T05:56:16.953Z,1016.93
2018-02-19T05:57:16.986Z,1016.94
2018-02-19T05:58:17.085Z,1016.95
2018-02-19T05:59:17.311Z,1016.98
2018-02-19T06:00:17.096Z,1016.99
2018-02-19T06:01:17.107Z,1017.01
2018-02-19T06:02:17.153Z,1016.98
2018-02-19T06:03:17.297Z,1017.03
2018-02-19T06:04:17.228Z,1017.01
2018-02-19T06:05:17.243Z,1017.06
2018-02-19T06:06:17.573Z,1017.03
2018-02-19T06:07:17.303Z,1017.02
2018-02-19T06:08:17.336Z,1017.02
2018-02-19T06:09:17.364Z,1017.02
2018-02-19T06:10:17.392Z,1016.99
2018-02-19T06:11:17.424Z,1016.98
2018-02-19T06:12:17.453Z,1016.94
2018-02-19T06:13:17.737Z,1016.95
2018-02-19T06:14:17.514Z,1016.97
2018-02-19T06:15:17.592Z,1016.95
2018-02-19T06:16:17.575Z,1016.94
2018-02-19T06:17:17.602Z,1016.94
2018-02-19T06:18:17.636Z,1016.95
2018-02-19T06:19:17.670Z,1016.94
2018-02-19T06:20:17.955Z,1016.92
2018-02-19T06:21:17.778Z,1016.95
2018-02-19T06:22:17.759Z,1016.97
2018-02-19T06:23:17.896Z,1016.99
2018-02-19T06:24:17.904Z,1016.97
2018-02-19T06:25:17.858Z,1016.99
2018-02-19T06:26:17.866Z,1016.98
2018-02-19T06:27:18.146Z,1017.00
2018-02-19T06:28:18.092Z,1017.02
2018-02-19T06:29:17.967Z,1017.05
2018-02-19T06:30:17.995Z,1017.04
2018-02-19T06:31:18.007Z,1017.08
2018-02-19T06:32:18.068Z,1017.06
2018-02-19T06:33:18.073Z,1017.05
2018-02-19T06:34:18.516Z,1017.07
2018-02-19T06:35:18.128Z,1017.08
2018-02-19T06:36:18.157Z,1017.07
2018-02-19T06:37:18.187Z,1017.06
2018-02-19T06:38:18.223Z,1017.05
2018-02-19T06:39:18.265Z,1017.04
2018-02-19T06:40:18.337Z,1017.01
2018-02-19T06:41:18.575Z,1017.01
2018-02-19T06:42:18.386Z,1017.01
2018-02-19T06:43:18.444Z,1016.99
2018-02-19T06:44:18.398Z,1016.99
2018-02-19T06:45:18.428Z,1016.94
2018-02-19T06:46:18.510Z,1016.98
2018-02-19T06:47:18.513Z,1016.98
2018-02-19T06:48:18.849Z,1016.98
2018-02-19T06:49:18.567Z,1016.98
2018-02-19T06:50:18.595Z,1016.97
2018-02-19T06:51:18.660Z,1016.99
2018-02-19T06:52:18.740Z,1016.97
2018-02-19T06:53:18.693Z,1016.95
2018-02-19T06:54:18.700Z,1016.94
2018-02-19T06:55:19.021Z,1016.97
2018-02-19T06:56:18.784Z,1016.93
2018-02-19T06:57:18.789Z,1016.90
2018-02-19T06:58:19.254Z,1016.91
2018-02-19T06:59:18.870Z,1016.89
2018-02-19T07:00:18.901Z,1016.89
2018-02-19T07:01:18.924Z,1016.85
2018-02-19T07:02:19.244Z,1016.88
2018-02-19T07:03:18.992Z,1016.86
2018-02-19T07:04:19.001Z,1016.91
2018-02-19T07:05:19.135Z,1016.91
2018-02-19T07:06:19.077Z,1016.89
2018-02-19T07:07:19.089Z,1016.90
2018-02-19T07:08:19.142Z,1016.92
2018-02-19T07:09:19.402Z,1016.90
2018-02-19T07:10:19.192Z,1016.96
2018-02-19T07:11:19.261Z,1016.98
2018-02-19T07:12:19.244Z,1016.96
2018-02-19T07:13:19.272Z,1016.97
2018-02-19T07:14:19.321Z,1016.94
2018-02-19T07:15:19.339Z,1016.92
2018-02-19T07:16:19.660Z,1016.91
2018-02-19T07:17:19.411Z,1016.93
2018-02-19T07:18:19.464Z,1016.85
2018-02-19T07:19:19.455Z,1016.92
2018-02-19T07:20:19.502Z,1016.87
2018-02-19T07:21:19.522Z,1016.81
2018-02-19T07:22:19.875Z,1016.85
2018-02-19T07:23:19.599Z,1016.85
2018-02-19T07:24:19.633Z,1016.85
2018-02-19T07:25:19.640Z,1016.85
2018-02-19T07:26:19.684Z,1016.84
2018-02-19T07:27:19.785Z,1016.84
2018-02-19T07:28:20.035Z,1016.88
2018-02-19T07:29:19.779Z,1016.88
2018-02-19T07:30:19.796Z,1016.89
2018-02-19T07:31:19.880Z,1016.89
2018-02-19T07:32:19.872Z,1016.90
2018-02-19T07:33:19.872Z,1016.93
2018-02-19T07:34:20.207Z,1016.93
2018-02-19T07:35:19.951Z,1016.95
2018-02-19T07:36:19.983Z,1016.95
2018-02-19T07:37:19.993Z,1016.91
2018-02-19T07:38:20.026Z,1016.94
2018-02-19T07:39:20.058Z,1016.95
2018-02-19T07:40:20.356Z,1016.93
2018-02-19T07:41:20.222Z,1016.97
2018-02-19T07:42:20.163Z,1016.95
2018-02-19T07:43:20.179Z,1016.95
2018-02-19T07:44:20.244Z,1016.93
2018-02-19T07:45:20.255Z,1016.95
2018-02-19T07:46:20.521Z,1016.96
2018-02-19T07:47:20.317Z,1016.93
2018-02-19T07:48:20.328Z,1016.96
2018-02-19T07:49:20.383Z,1016.96
2018-02-19T07:50:20.408Z,1016.96
2018-02-19T07:51:20.415Z,1016.91
2018-02-19T07:52:20.809Z,1016.94
2018-02-19T07:53:20.477Z,1016.92
2018-02-19T07:54:20.514Z,1016.92
2018-02-19T07:55:20.558Z,1016.88
2018-02-19T07:56:20.569Z,1016.86
2018-02-19T07:57:20.599Z,1016.87
2018-02-19T07:58:20.956Z,1016.83
2018-02-19T07:59:20.677Z,1016.80
2018-02-19T08:00:20.689Z,1016.74
2018-02-19T08:01:20.737Z,1016.74
2018-02-19T08:02:20.859Z,1016.77
2018-02-19T08:03:20.782Z,1016.76
2018-02-19T08:04:21.121Z,1016.75
2018-02-19T08:05:20.845Z,1016.78
2018-02-19T08:06:20.872Z,1016.75
2018-02-19T08:07:20.904Z,1016.78
2018-02-19T08:08:20.931Z,1016.78
2018-02-19T08:09:21.005Z,1016.72
2018-02-19T08:10:21.294Z,1016.72
2018-02-19T08:11:21.041Z,1016.68
2018-02-19T08:12:21.071Z,1016.65
2018-02-19T08:13:21.106Z,1016.66
2018-02-19T08:14:21.133Z,1016.66
2018-02-19T08:15:21.146Z,1016.59
2018-02-19T08:16:21.479Z,1016.62
2018-02-19T08:17:21.211Z,1016.58
2018-02-19T08:18:21.265Z,1016.60
2018-02-19T08:19:21.281Z,1016.58
2018-02-19T08:20:21.295Z,1016.62
2018-02-19T08:21:21.353Z,1016.61
2018-02-19T08:22:21.607Z,1016.58
2018-02-19T08:23:21.409Z,1016.57
2018-02-19T08:24:21.439Z,1016.56
2018-02-19T08:25:21.471Z,1016.55
2018-02-19T08:26:21.504Z,1016.61
2018-02-19T08:27:21.525Z,1016.59
2018-02-19T08:28:21.837Z,1016.64
2018-02-19T08:29:21.688Z,1016.60
2018-02-19T08:30:21.624Z,1016.59
2018-02-19T08:31:21.640Z,1016.54
2018-02-19T08:32:21.678Z,1016.58
2018-02-19T08:33:21.689Z,1016.47
2018-02-19T08:34:21.737Z,1016.55
2018-02-19T08:35:22.016Z,1016.54
2018-02-19T08:36:21.795Z,1016.58
2018-02-19T08:37:21.832Z,1016.59
2018-02-19T08:38:21.963Z,1016.57
2018-02-19T08:39:21.900Z,1016.52
2018-02-19T08:40:21.902Z,1016.55
2018-02-19T08:41:21.952Z,1016.58
2018-02-19T08:42:22.289Z,1016.51
2018-02-19T08:43:22.093Z,1016.54
2018-02-19T08:44:22.037Z,1016.50
2018-02-19T08:45:22.073Z,1016.48
2018-02-19T08:46:22.103Z,1016.48
2018-02-19T08:47:22.134Z,1016.44
2018-02-19T08:48:22.161Z,1016.45
2018-02-19T08:49:22.481Z,1016.43
2018-02-19T08:50:22.225Z,1016.46
2018-02-19T08:51:22.252Z,1016.44
2018-02-19T08:52:22.286Z,1016.43
2018-02-19T08:53:22.319Z,1016.43
2018-02-19T08:54:22.446Z,1016.40
2018-02-19T08:55:22.375Z,1016.35
2018-02-19T08:56:22.658Z,1016.36
2018-02-19T08:57:22.433Z,1016.29
2018-02-19T08:58:22.490Z,1016.25
2018-02-19T08:59:22.500Z,1016.25
2018-02-19T09:00:22.512Z,1016.25
2018-02-19T09:01:22.558Z,1016.27
2018-02-19T09:02:22.595Z,1016.24
2018-02-19T09:03:22.969Z,1016.23
2018-02-19T09:04:22.665Z,1016.27
2018-02-19T09:05:22.658Z,1016.26
2018-02-19T09:06:22.717Z,1016.28
2018-02-19T09:07:22.722Z,1016.24
2018-02-19T09:08:22.758Z,1016.25
2018-02-19T09:09:22.782Z,1016.30
2018-02-19T09:10:23.134Z,1016.23
2018-02-19T09:11:22.864Z,1016.21
2018-02-19T09:12:22.922Z,1016.23
2018-02-19T09:13:22.913Z,1016.17
2018-02-19T09:14:22.940Z,1016.20
2018-02-19T09:15:22.986Z,1016.18
2018-02-19T09:16:23.017Z,1016.14
2018-02-19T09:17:23.326Z,1016.15
2018-02-19T09:18:23.096Z,1016.16
2018-02-19T09:19:23.088Z,1016.16
2018-02-19T09:20:23.136Z,1016.15
2018-02-19T09:21:23.160Z,1016.10
2018-02-19T09:22:23.200Z,1016.12
2018-02-19T09:23:23.262Z,1016.10
2018-02-19T09:24:23.524Z,1016.09
2018-02-19T09:25:23.287Z,1016.08
2018-02-19T09:26:23.325Z,1016.12
2018-02-19T09:27:23.336Z,1016.18
2018-02-19T09:28:23.405Z,1016.13
2018-02-19T09:29:23.428Z,1016.18
2018-02-19T09:30:23.441Z,1016.20
2018-02-19T09:31:23.777Z,1016.20
2018-02-19T09:32:23.507Z,1016.19
2018-02-19T09:33:23.524Z,1016.23
2018-02-19T09:34:23.591Z,1016.18
2018-02-19T09:35:23.587Z,1016.20
2018-02-19T09:36:23.644Z,1016.16
2018-02-19T09:37:23.639Z,1016.18
2018-02-19T09:38:23.983Z,1016.14
2018-02-19T09:39:23.699Z,1016.17
2018-02-19T09:40:23.759Z,1016.12
2018-02-19T09:41:23.784Z,1016.16
2018-02-19T09:42:23.795Z,1016.11
2018-02-19T09:43:23.844Z,1016.15
2018-02-19T09:44:23.858Z,1016.13
2018-02-19T09:45:24.187Z,1016.13
2018-02-19T09:46:23.942Z,1016.06
2018-02-19T09:47:23.945Z,1016.09
2018-02-19T09:48:23.995Z,1016.04
2018-02-19T09:49:24.033Z,1016.02
2018-02-19T09:50:24.056Z,1016.01
2018-02-19T09:51:24.085Z,1016.04
2018-02-19T09:52:24.386Z,1016.02
2018-02-19T09:53:24.154Z,1016.01
2018-02-19T09:54:24.169Z,1016.01
2018-02-19T09:55:24.259Z,1016.02
2018-02-19T09:56:24.243Z,1016.01
2018-02-19T09:57:24.259Z,1015.97
2018-02-19T09:58:24.544Z,1015.98
2018-02-19T09:59:24.317Z,1015.97
2018-02-19T10:00:24.418Z,1015.97
2018-02-19T10:01:24.492Z,1015.98
2018-02-19T10:02:24.428Z,1015.98
2018-02-19T10:03:24.452Z,1015.99
2018-02-19T10:04:24.802Z,1016.01
2018-02-19T10:05:24.516Z,1016.01
2018-02-19T10:06:24.534Z,1016.05
2018-02-19T10:07:24.589Z,1016.06
2018-02-19T10:08:24.609Z,1016.03
2018-02-19T10:09:24.620Z,1016.01
2018-02-19T10:10:24.956Z,1016.01
2018-02-19T10:11:24.705Z,1016.01
2018-02-19T10:12:24.716Z,1016.01
2018-02-19T10:13:24.766Z,1016.00
2018-02-19T10:14:24.796Z,1015.96
2018-02-19T10:15:24.911Z,1015.96
2018-02-19T10:16:25.090Z,1015.99
2018-02-19T10:17:24.887Z,1015.95
2018-02-19T10:18:24.916Z,1015.95
2018-02-19T10:19:24.990Z,1016.00
2018-02-19T10:20:24.968Z,1016.01
2018-02-19T10:21:24.995Z,1016.00
2018-02-19T10:22:25.344Z,1015.99
2018-02-19T10:23:25.058Z,1015.99
2018-02-19T10:24:25.102Z,1015.99
2018-02-19T10:25:25.114Z,1015.97
2018-02-19T10:26:25.159Z,1015.95
2018-02-19T10:27:25.215Z,1015.95
2018-02-19T10:28:25.512Z,1015.97
2018-02-19T10:29:25.256Z,1015.97
2018-02-19T10:30:25.293Z,1015.98
2018-02-19T10:31:25.317Z,1016.00
2018-02-19T10:32:25.335Z,1015.95
2018-02-19T10:33:25.362Z,1015.94
2018-02-19T10:34:25.727Z,1015.98
2018-02-19T10:35:25.440Z,1015.94
2018-02-19T10:36:25.479Z,1015.96
2018-02-19T10:37:25.523Z,1015.97
2018-02-19T10:38:25.527Z,1015.97
2018-02-19T10:39:25.614Z,1015.96
2018-02-19T10:40:25.907Z,1015.94
2018-02-19T10:41:25.631Z,1015.96
2018-02-19T10:42:25.651Z,1015.95
2018-02-19T10:43:25.684Z,1015.92
2018-02-19T10:44:25.753Z,1015.93
2018-02-19T10:45:25.734Z,1015.94
2018-02-19T10:46:26.033Z,1015.91
2018-02-19T10:47:25.803Z,1015.92
2018-02-19T10:48:25.863Z,1015.98
2018-02-19T10:49:25.972Z,1015.96
2018-02-19T10:50:25.914Z,1015.98
2018-02-19T10:51:25.976Z,1015.97
2018-02-19T10:52:26.274Z,1015.95
2018-02-19T10:53:26.042Z,1015.96
2018-02-19T10:54:26.100Z,1015.95
2018-02-19T10:55:26.142Z,1015.92
2018-02-19T10:56:26.072Z,1015.91
2018-02-19T10:57:26.122Z,1015.90
2018-02-19T10:58:26.409Z,1015.90
2018-02-19T10:59:26.186Z,1015.85
2018-02-19T11:00:26.223Z,1015.83
2018-02-19T11:01:26.246Z,1015.80
2018-02-19T11:02:26.275Z,1015.84
2018-02-19T11:03:26.312Z,1015.80
2018-02-19T11:04:26.805Z,1015.78
2018-02-19T11:05:26.350Z,1015.78
2018-02-19T11:06:26.383Z,1015.78
2018-02-19T11:07:26.437Z,1015.78
2018-02-19T11:08:26.448Z,1015.82
2018-02-19T11:09:26.505Z,1015.84
2018-02-19T11:10:26.545Z,1015.87
2018-02-19T11:11:26.808Z,1015.84
2018-02-19T11:12:26.569Z,1015.85
2018-02-19T11:13:26.653Z,1015.81
2018-02-19T11:14:26.648Z,1015.85
2018-02-19T11:15:26.681Z,1015.82
2018-02-19T11:16:27.644Z,1015.82
2018-02-19T11:17:26.783Z,1015.85
2018-02-19T11:18:27.019Z,1015.86
2018-02-19T11:19:26.988Z,1015.88
2018-02-19T11:20:26.984Z,1015.90
2018-02-19T11:21:27.717Z,1015.91
2018-02-19T11:22:27.396Z,1015.90
2018-02-19T11:23:27.266Z,1015.89
2018-02-19T11:24:27.409Z,1015.87
2018-02-19T11:25:27.297Z,1015.86
2018-02-19T11:26:27.023Z,1015.81
2018-02-19T11:27:27.034Z,1015.74
2018-02-19T11:28:27.078Z,1015.73
2018-02-19T11:29:27.099Z,1015.73
2018-02-19T11:30:27.479Z,1015.70
2018-02-19T11:31:27.176Z,1015.68
2018-02-19T11:32:27.463Z,1015.67
2018-02-19T11:33:27.222Z,1015.64
2018-02-19T11:34:27.278Z,1015.66
2018-02-19T11:35:27.286Z,1015.64
2018-02-19T11:36:27.965Z,1015.64
2018-02-19T11:37:28.981Z,1015.66
2018-02-19T11:38:28.135Z,1015.69
2018-02-19T11:39:27.677Z,1015.65
2018-02-19T11:40:27.462Z,1015.61
2018-02-19T11:41:27.505Z,1015.55
2018-02-19T11:42:27.551Z,1015.54
2018-02-19T11:43:27.572Z,1015.55
2018-02-19T11:44:27.604Z,1015.52
2018-02-19T11:45:27.619Z,1015.54
2018-02-19T11:46:27.985Z,1015.49
2018-02-19T11:47:27.685Z,1015.51
2018-02-19T11:48:27.716Z,1015.45
2018-02-19T11:49:27.739Z,1015.41
2018-02-19T11:50:27.781Z,1015.44
2018-02-19T11:51:27.789Z,1015.44
2018-02-19T11:52:27.815Z,1015.39
2018-02-19T11:53:28.126Z,1015.37
2018-02-19T11:54:27.909Z,1015.37
2018-02-19T11:55:27.916Z,1015.34
2018-02-19T11:56:27.958Z,1015.34
2018-02-19T11:57:28.026Z,1015.33
2018-02-19T11:58:28.050Z,1015.32
2018-02-19T11:59:28.051Z,1015.32
2018-02-19T12:00:28.318Z,1015.30
2018-02-19T12:01:28.157Z,1015.32
2018-02-19T12:02:28.132Z,1015.31
2018-02-19T12:03:28.185Z,1015.27
2018-02-19T12:04:28.194Z,1015.26
2018-02-19T12:05:28.231Z,1015.26